Time;durP1;ratioP1;P1;durP2;ratioP2;P2;SDS_P1;SDS_P2;PMS_P1;PMS_P2;Temp;Humidity;BMP_temperature;BMP_pressure;BME280_temperature;BME280_humidity;BME280_pressure;Samples;Min_cycle;Max_cycle;Signal;HPM_P1;HPM_P2
2023/06/15 00:01:29;;;;;;;7.18;6.47;;;;;;;24.29;62.71;101201.19;5032102;28;20049;-88
2023/06/15 00:03:55;;;;;;;7.63;6.22;;;;;;;24.29;62.73;101198.53;5038513;28;20033;-88
2023/06/15 00:06:21;;;;;;;;;;;;;;;24.40;62.94;101219.94;5031335;28;20116;-87
2023/06/15 00:08:46;;;;;;;6.80;6.05;;;;;;;24.25;62.60;101194.06;5029423;28;19916;-87
2023/06/15 00:11:12;;;;;;;;;;;;;;;24.38;62.92;101219.94;5063218;28;20037;-87
2023/06/15 00:13:38;;;;;;;6.93;6.22;;;;;;;24.06;62.82;101163.72;5029395;28;20362;-87
2023/06/15 00:16:03;;;;;;;;;;;;;;;24.34;63.20;101210.13;5029888;28;20033;-87
2023/06/15 00:18:30;;;;;;;7.28;6.57;;;;;;;24.13;62.87;101167.31;5013014;28;19917;-88
2023/06/15 00:20:55;;;;;;;7.85;6.53;;;;;;;24.06;63.03;101163.72;5029844;28;20025;-87
2023/06/15 00:23:26;;;;;;;;;;;;;;;24.34;63.03;101203.88;5030488;28;20040;-86
2023/06/15 00:25:53;;;;;;;7.05;6.35;;;;;;;24.26;62.87;101192.31;5030303;28;19919;-87
2023/06/15 00:28:20;;;;;;;7.13;6.43;;;;;;;24.07;62.89;101164.63;5029768;28;20112;-86
2023/06/15 00:30:45;;;;;;;6.78;6.18;;;;;;;24.25;62.99;101199.41;5030239;28;20083;-86
2023/06/15 00:33:11;;;;;;;;;;;;;;;24.31;62.82;101195.88;5044601;28;20033;-86
2023/06/15 00:35:36;;;;;;;6.57;5.97;;;;;;;23.89;62.98;101136.97;5013384;28;19913;-86
2023/06/15 00:38:02;;;;;;;;;;;;;;;24.30;63.10;101204.75;5031256;28;20025;-86
2023/06/15 00:40:27;;;;;;;7.53;6.60;;;;;;;24.28;62.78;101214.56;5030515;28;19920;-85
2023/06/15 00:42:53;;;;;;;;;;;;;;;24.28;62.65;101201.22;5029752;28;20116;-88
2023/06/15 00:45:18;;;;;;;7.03;6.32;;;;;;;24.25;62.82;101199.41;5029077;28;19917;-88
2023/06/15 00:47:46;;;;;;;6.88;6.18;;;;;;;23.76;62.34;101114.66;5029833;28;20029;-88
2023/06/15 00:50:18;;;;;;;6.63;5.93;;;;;;;23.93;62.74;101146.75;5037681;28;20068;-88
2023/06/15 00:52:45;;;;;;;7.03;6.32;;;;;;;24.07;62.63;101168.19;5038074;28;20025;-87
2023/06/15 00:55:13;;;;;;;6.95;6.25;;;;;;;24.12;62.70;101173.53;5011458;28;20123;-87
2023/06/15 00:57:44;;;;;;;7.88;6.28;;;;;;;23.97;62.57;101153.91;5030041;28;20044;-87
2023/06/15 01:00:12;;;;;;;7.35;6.57;;;;;;;23.86;62.65;101131.63;5027473;28;20029;-86
2023/06/15 01:02:39;;;;;;;7.10;5.95;;;;;;;24.18;62.64;101182.47;5026618;28;20025;-87
2023/06/15 01:05:05;;;;;;;7.25;6.32;;;;;;;24.10;62.39;101168.19;5028519;28;20029;-87
2023/06/15 01:07:31;;;;;;;;;;;;;;;24.25;62.41;101187.84;5017714;28;20038;-87
2023/06/15 01:09:57;;;;;;;7.45;6.63;;;;;;;24.03;62.47;101161.06;5029215;28;19917;-87
2023/06/15 01:12:24;;;;;;;7.00;5.95;;;;;;;24.12;62.43;101178.88;5028741;28;20057;-88
2023/06/15 01:14:49;;;;;;;6.82;6.18;;;;;;;24.14;62.18;101191.34;5020983;28;20056;-87
2023/06/15 01:17:15;;;;;;;;;;;;;;;24.22;62.32;101195.84;5032850;28;20497;-87
2023/06/15 01:20:04;;;;;;;6.90;6.20;;;;;;;24.18;62.22;101198.47;5023910;28;20418;-86
2023/06/15 01:23:01;;;;;;;6.90;6.20;;;;;;;24.18;62.48;101189.59;5024452;28;20025;-87
2023/06/15 01:25:45;;;;;;;6.85;6.18;;;;;;;24.18;62.26;101186.91;5031070;28;20060;-88
2023/06/15 01:28:14;;;;;;;6.47;5.80;;;;;;;24.17;62.14;101190.44;5030290;28;20423;-87
2023/06/15 01:30:53;;;;;;;7.32;6.35;;;;;;;24.15;62.41;101187.81;5029360;28;20025;-88
2023/06/15 01:33:21;;;;;;;7.15;6.15;;;;;;;24.15;62.49;101189.56;5061867;28;20028;-86
2023/06/15 01:35:46;;;;;;;6.90;5.93;;;;;;;24.02;62.20;101169.94;5029056;28;20111;-87
2023/06/15 01:38:12;;;;;;;;;;;;;;;24.17;62.06;101194.03;5030660;28;20029;-86
2023/06/15 01:40:40;;;;;;;7.18;6.07;;;;;;;23.86;62.21;101141.41;5029480;28;19966;-87
2023/06/15 01:43:10;;;;;;;7.18;6.47;;;;;;;23.95;62.23;101163.69;5062073;28;20473;-86
2023/06/15 01:45:37;;;;;;;7.07;6.18;;;;;;;23.96;62.31;101165.47;5029095;28;20030;-87
2023/06/15 01:48:03;;;;;;;6.55;5.95;;;;;;;23.83;61.89;101141.38;5027709;28;20068;-86
2023/06/15 01:50:29;;;;;;;;;;;;;;;24.10;62.37;101186.88;5031232;28;20048;-88
2023/06/15 01:52:55;;;;;;;6.40;5.80;;;;;;;24.03;62.53;101187.75;5028333;28;20377;-88
2023/06/15 01:55:20;;;;;;;;;;;;;;;24.12;62.06;101202.91;5029067;28;20056;-89
2023/06/15 01:57:46;;;;;;;7.10;6.03;;;;;;;24.07;62.10;101196.66;5028521;28;20376;-89
2023/06/15 02:00:12;;;;;;;;;;;;;;;24.09;62.07;101209.13;5027960;28;20041;-88
2023/06/15 02:02:37;;;;;;;6.88;6.20;;;;;;;23.87;62.28;101172.53;5029583;28;19940;-89
2023/06/15 02:05:03;;;;;;;;;;;;;;;24.07;62.21;101204.66;5031464;28;20507;-90
2023/06/15 02:07:29;;;;;;;6.70;6.10;;;;;;;23.97;62.28;101195.69;5033541;28;19917;-91
2023/06/15 02:09:55;;;;;;;;;;;;;;;24.07;62.43;101204.66;5050096;28;20021;-90
2023/06/15 02:12:22;;;;;;;6.25;5.65;;;;;;;23.80;62.05;101158.25;5011078;28;19960;-90
2023/06/15 02:14:49;;;;;;;6.50;5.90;;;;;;;23.56;62.27;101124.31;5015163;28;20424;-89
2023/06/15 02:17:16;;;;;;;6.70;6.00;;;;;;;23.79;62.34;101161.78;5031843;28;20060;-89
2023/06/15 02:19:47;;;;;;;6.70;6.10;;;;;;;23.84;62.28;101175.19;5040876;28;20421;-89
2023/06/15 02:22:15;;;;;;;6.45;5.85;;;;;;;23.78;62.29;101171.56;5032253;28;20036;-87
2023/06/15 02:24:41;;;;;;;6.60;5.90;;;;;;;23.84;62.30;101180.53;5037256;28;20116;-87
2023/06/15 02:27:07;;;;;;;6.10;5.50;;;;;;;23.57;61.91;101132.31;5030568;28;20144;-86
2023/06/15 02:29:32;;;;;;;;;;;;;;;24.00;62.31;101202.81;5032135;28;20036;-86
2023/06/15 02:31:58;;;;;;;6.40;5.80;;;;;;;23.62;62.00;101144.78;5018757;28;19996;-88
2023/06/15 02:34:26;;;;;;;;;;;;;;;24.00;62.10;101206.38;5031200;28;20029;-88
2023/06/15 02:36:55;;;;;;;6.57;5.90;;;;;;;23.55;62.13;101133.19;5033057;28;19921;-89
2023/06/15 02:39:21;;;;;;;6.72;5.72;;;;;;;23.87;62.00;101183.19;5032035;28;20394;-88
2023/06/15 02:41:47;;;;;;;;;;;;;;;23.98;61.92;101198.38;5052574;28;20033;-88
2023/06/15 02:44:17;;;;;;;6.05;5.45;;;;;;;23.55;62.13;101123.41;5010204;28;20384;-88
2023/06/15 02:46:44;;;;;;;6.40;5.68;;;;;;;23.72;62.00;101163.50;5032497;28;20028;-89
2023/06/15 02:49:10;;;;;;;7.10;6.18;;;;;;;23.55;62.05;101136.72;5030199;28;20033;-88
2023/06/15 02:51:37;;;;;;;;;;;;;;;23.95;61.96;101200.13;5033289;28;20120;-89
2023/06/15 02:54:06;;;;;;;6.25;5.57;;;;;;;23.61;62.17;101146.56;5032853;28;19913;-89
2023/06/15 02:56:34;;;;;;;8.40;6.07;;;;;;;23.49;62.09;101130.47;5032725;28;20036;-88
2023/06/15 02:59:00;;;;;;;6.25;5.65;;;;;;;23.56;62.13;101142.97;5023679;28;20040;-88
2023/06/15 03:01:36;;;;;;;;;;;;;;;23.94;61.99;101204.59;5033040;28;20026;-88
2023/06/15 03:04:03;;;;;;;5.93;5.30;;;;;;;23.92;62.21;101203.69;5031711;28;19912;-88
2023/06/15 03:06:33;;;;;;;6.18;5.57;;;;;;;23.61;62.50;101151.00;5029061;28;20025;-88
2023/06/15 03:08:59;;;;;;;6.40;5.80;;;;;;;23.66;62.58;101163.47;5015011;28;20389;-87
2023/06/15 03:11:24;;;;;;;;;;;;;;;23.95;62.16;101202.81;5023075;28;20087;-87
2023/06/15 03:13:50;;;;;;;6.47;5.88;;;;;;;23.83;62.02;101192.06;5030770;28;19935;-88
2023/06/15 03:16:15;;;;;;;;;;;;;;;23.90;62.09;101202.78;5037108;28;20025;-87
2023/06/15 03:18:42;;;;;;;7.15;5.55;;;;;;;23.41;62.26;101129.53;5013563;28;19921;-86
2023/06/15 03:21:08;;;;;;;6.95;5.82;;;;;;;23.80;62.41;101208.06;5031776;28;20038;-87
2023/06/15 03:23:33;;;;;;;6.22;5.63;;;;;;;23.66;62.72;101183.91;5032302;28;20113;-87
2023/06/15 03:25:59;;;;;;;;;;;;;;;23.89;62.05;101218.75;5032613;28;20504;-87
2023/06/15 03:28:27;;;;;;;6.13;5.53;;;;;;;23.74;62.34;101201.75;5028208;28;19913;-89
2023/06/15 03:30:56;;;;;;;6.05;5.45;;;;;;;23.63;62.02;101186.56;5047491;28;20123;-89
2023/06/15 03:33:23;;;;;;;7.30;5.55;;;;;;;23.76;62.12;101201.78;5026754;28;20026;-88
2023/06/15 03:35:49;;;;;;;6.28;5.68;;;;;;;23.83;63.05;101218.72;5030201;28;20033;-88
2023/06/15 03:38:18;;;;;;;6.47;5.82;;;;;;;23.57;62.40;101176.75;5028004;28;20032;-88
2023/06/15 03:40:43;;;;;;;5.90;5.40;;;;;;;23.51;62.17;101164.25;5029879;28;20033;-89
2023/06/15 03:43:13;;;;;;;;;;;;;;;23.84;62.79;101221.41;5022518;28;20412;-89
2023/06/15 03:45:39;;;;;;;5.70;5.20;;;;;;;23.54;61.95;101176.72;5032887;28;19919;-89
2023/06/15 03:48:04;;;;;;;6.00;5.40;;;;;;;23.78;62.02;101221.38;5029708;28;20061;-89
2023/06/15 03:50:31;;;;;;;;;;;;;;;23.83;62.22;101230.28;5031693;28;20122;-88
2023/06/15 03:52:56;;;;;;;5.80;5.28;;;;;;;23.41;62.02;101159.75;5030286;28;20364;-88
2023/06/15 03:55:22;;;;;;;;;;;;;;;23.83;62.03;101229.41;5032762;28;20063;-87
2023/06/15 03:57:47;;;;;;;8.88;5.57;;;;;;;23.71;62.40;101208.84;5014616;28;19916;-88
2023/06/15 04:00:14;;;;;;;6.30;5.07;;;;;;;23.59;62.99;101201.63;5031830;28;20039;-86
2023/06/15 04:02:40;;;;;;;6.05;5.55;;;;;;;23.75;62.15;101232.00;5020506;28;20048;-89
2023/06/15 04:05:06;;;;;;;6.38;5.78;;;;;;;23.62;62.43;101207.00;5033851;28;20046;-88
2023/06/15 04:07:34;;;;;;;7.97;6.32;;;;;;;23.49;63.84;101198.00;5028244;28;20060;-89
2023/06/15 04:10:00;;;;;;;6.20;5.60;;;;;;;23.62;62.83;101214.09;5029290;28;20033;-88
2023/06/15 04:12:28;;;;;;;5.57;5.05;;;;;;;23.70;62.80;101231.94;5063637;28;20038;-88
2023/06/15 04:14:55;;;;;;;6.22;5.63;;;;;;;23.56;63.13;101207.84;5031036;28;20127;-89
2023/06/15 04:17:20;;;;;;;7.22;6.53;;;;;;;23.43;64.07;101184.66;5025614;28;20061;-89
2023/06/15 04:19:48;;;;;;;7.68;6.15;;;;;;;23.64;62.91;101225.66;5061200;28;20508;-90
2023/06/15 04:22:15;;;;;;;6.40;5.80;;;;;;;23.56;63.42;101220.31;5030883;28;20033;-89
2023/06/15 04:24:40;;;;;;;6.60;5.88;;;;;;;23.57;63.70;101217.63;5057560;28;20037;-87
2023/06/15 04:27:06;;;;;;;6.55;5.88;;;;;;;23.42;63.56;101189.97;5011777;28;20029;-89
2023/06/15 04:29:32;;;;;;;;;;;;;;;23.77;63.65;101251.59;5059759;28;20033;-89
2023/06/15 04:31:58;;;;;;;7.93;6.05;;;;;;;23.54;64.37;101228.28;5028177;28;20315;-88
2023/06/15 04:34:26;;;;;;;;;;;;;;;23.70;64.60;101253.28;5029639;28;20039;-87
2023/06/15 04:36:56;;;;;;;7.38;6.40;;;;;;;23.53;65.08;101233.59;5045628;28;20297;-90
2023/06/15 04:39:25;;;;;;;7.18;6.22;;;;;;;23.45;65.39;101249.53;5022802;28;20033;-89
2023/06/15 04:41:51;;;;;;;7.35;6.55;;;;;;;23.16;64.96;101183.53;5027308;28;20044;-89
2023/06/15 04:44:19;;;;;;;7.10;6.40;;;;;;;23.26;65.14;101199.59;5030359;28;20493;-90
2023/06/15 04:46:51;;;;;;;6.75;6.07;;;;;;;23.67;64.56;101265.72;5002277;28;20512;-86
2023/06/15 04:49:19;;;;;;;6.55;5.85;;;;;;;23.40;63.59;101208.59;5012842;28;20044;-88
2023/06/15 04:51:55;;;;;;;6.60;6.00;;;;;;;23.68;64.02;101267.47;5022830;28;20147;-86
2023/06/15 04:54:24;;;;;;;7.30;6.22;;;;;;;23.63;64.34;101270.13;5022556;28;20496;-85
2023/06/15 04:56:51;;;;;;;6.00;5.43;;;;;;;23.49;64.19;101242.44;5023615;28;20040;-88
2023/06/15 04:59:25;;;;;;;7.22;6.03;;;;;;;23.64;64.49;101266.53;5011172;28;20025;-88
2023/06/15 05:02:01;;;;;;;6.68;6.07;;;;;;;23.66;64.54;101280.78;5027825;28;20513;-87
2023/06/15 05:04:38;;;;;;;7.15;6.45;;;;;;;23.30;65.01;101222.72;5016087;28;20033;-86
2023/06/15 05:07:05;;;;;;;6.85;6.25;;;;;;;23.25;65.13;101213.81;5040978;28;20107;-86
2023/06/15 05:09:35;;;;;;;6.60;5.97;;;;;;;23.51;65.22;101257.56;5006742;28;20112;-85
2023/06/15 05:12:02;;;;;;;6.53;5.93;;;;;;;23.53;64.83;101252.25;5018135;28;20037;-87
2023/06/15 05:14:28;;;;;;;7.15;6.18;;;;;;;23.41;64.92;101222.81;5034942;28;20033;-86
2023/06/15 05:17:03;;;;;;;;;;;;;;;23.72;65.00;101278.19;5028295;28;20040;-86
2023/06/15 05:19:34;;;;;;;7.53;6.68;;;;;;;23.68;65.09;101281.69;5027403;28;19913;-85
2023/06/15 05:22:02;;;;;;;6.30;5.70;;;;;;;23.33;64.65;101220.09;5040418;28;20021;-85
2023/06/15 05:24:38;;;;;;;6.80;6.15;;;;;;;23.04;63.73;101175.44;5020273;28;20482;-84
2023/06/15 05:27:24;;;;;;;6.70;6.03;;;;;;;23.30;63.88;101215.63;5016855;28;20044;-86
2023/06/15 05:30:01;;;;;;;6.33;5.73;;;;;;;23.03;65.03;101168.31;5038742;28;20025;-85
2023/06/15 05:43:08;;;;;;;7.38;5.90;;;;;;;23.43;64.42;101237.06;5020335;28;20072;-88
2023/06/15 05:45:37;;;;;;;6.53;5.93;;;;;;;23.35;63.65;101219.22;5024506;28;20095;-86
2023/06/15 05:48:03;;;;;;;6.43;5.60;;;;;;;23.54;63.61;101262.03;5011161;28;20041;-85
2023/06/15 05:50:31;;;;;;;;;;;;;;;23.75;64.24;101296.88;5028322;28;20037;-84
2023/06/15 05:52:56;;;;;;;;;;;;;;;23.75;63.34;101302.22;5029823;28;19920;-85
2023/06/15 05:55:23;;;;;;;6.88;6.18;;;;;;;23.32;63.44;101231.63;5009283;28;19913;-87
2023/06/15 05:57:49;;;;;;;6.60;6.00;;;;;;;23.64;63.64;101285.22;5046607;28;20183;-88
2023/06/15 06:00:15;;;;;;;;;;;;;;;23.70;63.54;101293.28;5014820;28;20029;-89
2023/06/15 06:02:43;;;;;;;6.90;6.03;;;;;;;23.47;63.69;101252.19;5011931;28;19917;-87
2023/06/15 06:05:13;;;;;;;6.57;5.97;;;;;;;23.51;63.62;101262.88;4996993;28;20140;-86
2023/06/15 06:07:39;;;;;;;6.85;6.15;;;;;;;23.38;63.24;101237.00;5012241;28;20040;-86
2023/06/15 06:10:05;;;;;;;;;;;;;;;23.74;63.67;101291.53;5010927;28;20034;-88
2023/06/15 06:12:31;;;;;;;7.72;6.35;;;;;;;23.73;63.72;101303.09;5007850;28;19917;-87
2023/06/15 06:14:59;;;;;;;;;;;;;;;23.76;63.82;101300.47;5011003;28;20037;-86
2023/06/15 06:17:25;;;;;;;7.38;6.40;;;;;;;23.37;63.71;101251.25;5011229;28;19914;-84
2023/06/15 06:19:51;;;;;;;;;;;;;;;23.70;63.88;101303.94;5031878;28;20021;-85
2023/06/15 06:22:20;;;;;;;7.38;6.57;;;;;;;23.67;63.76;101295.94;5030912;28;19979;-86
2023/06/15 06:24:46;;;;;;;7.97;7.18;;;;;;;23.20;63.93;101223.50;5028138;28;20025;-86
2023/06/15 06:27:11;;;;;;;;;;;;;;;23.71;63.79;101307.53;5029549;28;20028;-85
2023/06/15 06:29:37;;;;;;;6.93;6.22;;;;;;;23.62;63.66;101295.00;5012862;28;19939;-84
2023/06/15 06:32:02;;;;;;;;;;;;;;;23.73;63.83;101305.75;5009282;28;20091;-83
2023/06/15 06:34:33;;;;;;;7.40;6.70;;;;;;;23.72;63.93;101301.28;5027067;28;20009;-86
2023/06/15 06:37:00;;;;;;;7.50;6.80;;;;;;;23.54;63.79;101275.38;5016673;28;20607;-86
2023/06/15 06:39:28;;;;;;;7.20;6.50;;;;;;;23.61;63.97;101295.88;5032905;28;20033;-84
2023/06/15 06:42:11;;;;;;;7.57;6.82;;;;;;;23.75;63.61;101307.56;5012570;28;20500;-87
2023/06/15 06:44:37;;;;;;;7.38;6.60;;;;;;;23.29;63.74;101228.94;5028178;28;20057;-85
2023/06/15 06:47:03;;;;;;;;;;;;;;;23.74;63.44;101303.09;5027569;28;20056;-86
2023/06/15 06:49:29;;;;;;;7.28;6.50;;;;;;;23.34;64.07;101230.75;5010274;28;19953;-86
2023/06/15 06:51:56;;;;;;;7.32;6.63;;;;;;;23.68;63.58;101299.47;5025623;28;20486;-85
2023/06/15 06:54:22;;;;;;;7.38;6.68;;;;;;;23.46;63.49;101255.75;5015642;28;20028;-87
2023/06/15 06:56:52;;;;;;;7.28;6.57;;;;;;;23.29;63.53;101226.28;5033792;28;20029;-85
2023/06/15 06:59:20;;;;;;;7.57;6.88;;;;;;;23.70;63.53;101295.06;5016646;28;20052;-84
2023/06/15 07:01:50;;;;;;;8.40;6.88;;;;;;;23.61;63.92;101270.97;5034547;28;20026;-85
2023/06/15 07:04:15;;;;;;;7.45;6.75;;;;;;;23.83;63.52;101304.06;5015217;28;20029;-85
2023/06/15 07:06:41;;;;;;;;;;;;;;;23.84;63.60;101308.53;5034704;28;20381;-84
2023/06/15 07:09:06;;;;;;;7.30;6.60;;;;;;;23.80;63.31;101302.28;5010224;28;20387;-86
2023/06/15 07:11:34;;;;;;;;;;;;;;;23.82;63.87;101308.53;5031043;28;20033;-85
2023/06/15 07:14:05;;;;;;;8.07;7.22;;;;;;;23.79;63.55;101303.16;5034770;28;19952;-85
2023/06/15 07:16:38;;;;;;;7.95;7.15;;;;;;;23.79;63.79;101308.47;5022963;28;20048;-87
2023/06/15 07:19:05;;;;;;;7.57;6.75;;;;;;;23.71;63.85;101299.53;5023525;28;20048;-86
2023/06/15 07:21:31;;;;;;;7.95;7.15;;;;;;;23.52;64.21;101254.03;5035958;28;20057;-87
2023/06/15 07:23:57;;;;;;;7.80;7.00;;;;;;;23.66;63.78;101272.78;5037988;28;20026;-86
2023/06/15 07:26:23;;;;;;;;;;;;;;;23.87;63.92;101308.56;5036888;28;20017;-86
2023/06/15 07:28:49;;;;;;;7.60;6.90;;;;;;;23.80;63.78;101299.63;5033624;28;19925;-85
2023/06/15 07:31:14;;;;;;;;;;;;;;;23.86;64.62;101312.13;5028415;28;20025;-85
2023/06/15 07:33:41;;;;;;;7.80;7.07;;;;;;;23.76;64.15;101295.13;5033057;28;19917;-86
2023/06/15 07:36:07;;;;;;;8.80;7.35;;;;;;;23.45;63.97;101244.22;5030335;28;20423;-85
2023/06/15 07:38:32;;;;;;;;;;;;;;;23.87;63.87;101309.44;5030840;28;20506;-85
2023/06/15 07:40:58;;;;;;;8.13;7.32;;;;;;;23.35;63.88;101237.00;5030784;28;19920;-87
2023/06/15 07:43:24;;;;;;;;;;;;;;;23.88;64.56;101318.38;5030724;28;20049;-85
2023/06/15 07:45:52;;;;;;;8.20;7.32;;;;;;;23.82;64.15;101304.97;5030421;28;19924;-84
2023/06/15 07:48:17;;;;;;;8.05;7.25;;;;;;;23.83;63.62;101307.63;5031247;28;20040;-85
2023/06/15 07:50:46;;;;;;;;;;;;;;;23.90;63.23;101311.28;5031596;28;20029;-84
2023/06/15 07:53:12;;;;;;;9.07;6.90;;;;;;;23.82;63.40;101307.63;5031528;28;20040;-84
2023/06/15 07:55:37;;;;;;;;;;;;;;;23.89;63.32;101305.00;5030295;28;20606;-85
2023/06/15 07:58:03;;;;;;;8.27;6.90;;;;;;;23.86;63.15;101304.13;5012568;28;19924;-84
2023/06/15 08:00:29;;;;;;;;;;;;;;;23.91;63.16;101307.69;5012365;28;20075;-84
2023/06/15 08:02:55;;;;;;;7.82;7.03;;;;;;;23.88;63.12;101308.56;5030832;28;19972;-84
2023/06/15 08:05:21;;;;;;;;;;;;;;;23.91;63.11;101310.38;5011527;28;20029;-84
2023/06/15 08:07:46;;;;;;;7.82;7.13;;;;;;;23.90;63.04;101305.94;5028692;28;19988;-84
2023/06/15 08:10:12;;;;;;;;;;;;;;;23.92;63.14;101318.38;5011189;28;20595;-85
2023/06/15 08:12:37;;;;;;;8.68;7.40;;;;;;;23.90;62.89;101306.81;5028961;28;19913;-85
2023/06/15 08:15:03;;;;;;;8.32;7.50;;;;;;;23.88;63.04;101305.03;5030649;28;20026;-84
2023/06/15 08:17:29;;;;;;;;;;;;;;;23.95;63.19;101312.19;5029966;28;20559;-84
2023/06/15 08:19:55;;;;;;;8.05;6.63;;;;;;;23.95;62.80;101314.84;5030891;28;19913;-84
2023/06/15 08:22:20;;;;;;;;;;;;;;;23.95;62.96;101312.19;5031406;28;20033;-84
2023/06/15 08:24:48;;;;;;;7.90;7.05;;;;;;;23.94;63.25;101313.97;5029953;28;20024;-84
2023/06/15 08:27:14;;;;;;;;;;;;;;;23.97;63.02;101313.09;5031391;28;20104;-84
2023/06/15 08:29:45;;;;;;;7.55;6.85;;;;;;;23.97;63.03;101319.31;5030460;28;19964;-84
2023/06/15 08:32:13;;;;;;;8.07;7.07;;;;;;;23.97;63.13;101305.09;5030445;28;20029;-82
2023/06/15 08:34:45;;;;;;;8.35;7.10;;;;;;;23.98;63.14;101313.09;5031118;28;20029;-84
2023/06/15 08:37:12;;;;;;;8.15;6.90;;;;;;;23.98;62.96;101306.84;5030845;28;20480;-85
2023/06/15 08:39:38;;;;;;;9.18;6.88;;;;;;;24.00;62.94;101310.44;5029300;28;20029;-84
2023/06/15 08:42:06;;;;;;;7.60;6.90;;;;;;;23.94;63.04;101295.28;5029747;28;20056;-83
2023/06/15 08:44:33;;;;;;;8.00;6.90;;;;;;;24.00;63.29;101298.88;5030668;28;20037;-84
2023/06/15 08:47:01;;;;;;;8.40;7.43;;;;;;;23.87;63.07;101282.75;5030338;28;20028;-85
2023/06/15 08:49:33;;;;;;;7.65;6.95;;;;;;;24.05;63.07;101308.69;5029517;28;20128;-83
2023/06/15 08:52:01;;;;;;;7.88;6.90;;;;;;;23.96;63.18;101301.53;5031046;28;20025;-84
2023/06/15 08:54:28;;;;;;;7.85;7.05;;;;;;;23.95;63.21;101290.84;5013634;28;20037;-84
2023/06/15 08:56:55;;;;;;;7.13;6.43;;;;;;;24.07;63.00;101309.59;5030533;28;20060;-84
2023/06/15 08:59:21;;;;;;;8.20;7.40;;;;;;;24.02;63.57;101300.66;5030922;28;20044;-84
2023/06/15 09:01:46;;;;;;;;;;;;;;;24.10;62.95;101306.94;5014690;28;20032;-84
2023/06/15 09:04:12;;;;;;;7.00;6.30;;;;;;;24.06;63.28;101306.91;5030446;28;20012;-85
2023/06/15 09:06:38;;;;;;;;;;;;;;;24.12;63.34;101309.63;4996476;28;20121;-85
2023/06/15 09:09:04;;;;;;;7.50;6.80;;;;;;;24.07;63.05;101298.06;5030699;28;20037;-85
2023/06/15 09:11:38;;;;;;;12.10;7.20;;;;;;;24.05;66.15;101300.69;5028444;28;20452;-88
2023/06/15 09:14:08;;;;;;;12.60;7.70;;;;;;;23.85;67.82;101284.53;5015004;28;20033;-87
2023/06/15 09:16:33;;;;;;;8.57;7.78;;;;;;;23.94;68.25;101297.97;5014255;28;20025;-87
2023/06/15 09:18:59;;;;;;;;;;;;;;;23.98;68.20;101298.84;5024915;28;20037;-88
2023/06/15 09:21:26;;;;;;;8.02;7.20;;;;;;;23.98;67.82;101305.09;5030282;28;19987;-86
2023/06/15 09:23:51;;;;;;;8.75;7.75;;;;;;;24.13;67.49;101301.66;5031511;28;20025;-86
2023/06/15 09:26:26;;;;;;;;;;;;;;;24.09;67.23;101310.50;5029496;28;20040;-88
2023/06/15 09:28:57;;;;;;;9.38;7.90;;;;;;;24.05;67.89;101306.03;5023531;28;20004;-87
2023/06/15 09:31:30;;;;;;;9.23;8.32;;;;;;;24.00;67.60;101293.53;5029291;28;20109;-87
2023/06/15 09:34:17;;;;;;;9.93;8.25;;;;;;;24.08;67.67;101306.03;4990708;28;20033;-86
2023/06/15 09:36:47;;;;;;;9.25;8.35;;;;;;;24.10;67.27;101308.72;5027233;28;20024;-87
2023/06/15 09:39:14;;;;;;;9.38;8.45;;;;;;;24.15;66.83;101312.31;5027860;28;20029;-84
2023/06/15 09:42:00;;;;;;;11.57;8.82;;;;;;;24.15;66.17;101306.97;5029270;28;20037;-85
2023/06/15 09:44:26;;;;;;;9.55;7.93;;;;;;;24.17;66.31;101303.47;5012818;28;20052;-86
2023/06/15 09:46:59;;;;;;;10.30;9.20;;;;;;;24.20;66.07;101304.38;5012647;28;20022;-87
2023/06/15 09:49:27;;;;;;;9.57;8.52;;;;;;;24.23;66.65;101313.25;5030376;28;20075;-87
2023/06/15 09:51:54;;;;;;;9.85;8.57;;;;;;;24.23;67.27;101305.25;5013772;28;20034;-87
2023/06/15 09:54:22;;;;;;;12.23;8.45;;;;;;;24.28;66.14;101305.31;5029984;28;20052;-86
2023/06/15 09:56:50;;;;;;;10.43;8.65;;;;;;;24.24;66.07;101300.84;5029599;28;20072;-84
2023/06/15 09:59:16;;;;;;;10.55;9.13;;;;;;;24.30;66.50;101307.09;5013011;28;20056;-85
2023/06/15 10:01:46;;;;;;;12.20;8.90;;;;;;;24.34;66.53;101307.97;5012770;28;20035;-87
2023/06/15 10:04:13;;;;;;;10.18;9.07;;;;;;;24.32;66.73;101296.41;5012569;28;20029;-87
2023/06/15 10:06:43;;;;;;;10.05;8.60;;;;;;;24.34;66.09;101302.66;5029889;28;20053;-86
2023/06/15 10:09:10;;;;;;;9.50;8.50;;;;;;;24.33;65.55;101301.75;5028206;28;20087;-85
2023/06/15 10:11:37;;;;;;;10.00;8.65;;;;;;;24.34;65.33;101302.66;5028577;28;20138;-87
2023/06/15 10:14:13;;;;;;;11.43;8.85;;;;;;;24.33;65.56;101287.53;5016079;28;20037;-86
2023/06/15 10:20:16;;;;;;;9.63;8.60;;;;;;;24.38;65.84;101300.03;5032951;28;20044;-90
2023/06/15 10:23:16;;;;;;;10.38;9.07;;;;;;;23.88;66.43;101209.88;5020006;28;20037;-87
2023/06/15 10:25:45;;;;;;;10.00;8.75;;;;;;;24.42;65.88;101292.91;5001014;28;20459;-88
2023/06/15 10:28:11;;;;;;;10.77;8.93;;;;;;;24.32;65.35;101272.38;5011800;28;20048;-86
2023/06/15 10:31:00;;;;;;;9.45;8.55;;;;;;;24.48;65.58;101298.28;5029028;28;20455;-87
2023/06/15 10:34:00;;;;;;;9.57;8.15;;;;;;;24.51;65.48;101298.34;5028463;28;20036;-91
2023/06/15 10:36:31;;;;;;;10.02;8.57;;;;;;;24.15;66.09;101246.50;5026024;28;20100;-86
2023/06/15 10:39:35;;;;;;;10.85;8.40;;;;;;;24.45;65.65;101300.03;5015859;28;20058;-89
2023/06/15 10:42:42;;;;;;;9.40;8.50;;;;;;;24.43;65.45;101296.50;5007078;28;20567;-88
2023/06/15 10:45:36;;;;;;;9.95;8.27;;;;;;;24.53;65.53;101298.34;5014407;28;20500;-89
2023/06/15 10:48:03;;;;;;;9.27;8.20;;;;;;;24.17;65.77;101242.06;4984881;28;20030;-89
2023/06/15 10:50:53;;;;;;;9.35;8.13;;;;;;;24.47;65.41;101283.16;4995437;28;20033;-88
2023/06/15 10:53:26;;;;;;;9.40;8.30;;;;;;;24.23;64.96;101232.31;5001677;28;20036;-89
2023/06/15 10:55:54;;;;;;;9.15;8.13;;;;;;;24.22;64.97;101234.09;5004789;28;20556;-89
2023/06/15 10:58:21;;;;;;;9.10;8.20;;;;;;;24.41;65.74;101263.56;4996206;28;20510;-87
2023/06/15 11:01:07;;;;;;;10.77;8.82;;;;;;;24.52;65.31;101284.09;5012875;28;20029;-87
2023/06/15 11:03:34;;;;;;;10.05;8.02;;;;;;;24.47;66.15;101268.91;5012419;28;20033;-88
2023/06/15 11:06:19;;;;;;;10.68;8.68;;;;;;;24.53;65.45;101272.53;5013986;28;20088;-90
2023/06/15 11:08:50;;;;;;;10.02;8.70;;;;;;;24.34;66.08;101241.25;4996337;28;20025;-88
2023/06/15 11:11:39;;;;;;;9.55;8.57;;;;;;;24.54;66.42;101273.44;4996768;28;20404;-90
2023/06/15 11:14:24;;;;;;;9.70;8.70;;;;;;;24.51;65.99;101257.38;5014104;28;20041;-93
2023/06/15 11:17:03;;;;;;;9.55;8.30;;;;;;;24.61;65.32;101277.91;5013519;28;20036;-89
2023/06/15 11:19:35;;;;;;;10.10;8.43;;;;;;;24.71;65.21;101279.72;5012743;28;20029;-88
2023/06/15 11:22:06;;;;;;;9.35;8.45;;;;;;;24.58;65.48;101240.50;4996403;28;20036;-89
2023/06/15 11:24:37;;;;;;;9.30;8.40;;;;;;;24.29;65.02;101221.66;4996416;28;20026;-87
2023/06/15 11:27:03;;;;;;;9.60;8.60;;;;;;;24.25;65.50;101212.75;4995648;28;20022;-87
2023/06/15 11:29:32;;;;;;;9.55;8.55;;;;;;;24.44;65.45;101234.19;5016078;28;20105;-88
2023/06/15 11:32:03;;;;;;;9.63;8.63;;;;;;;24.45;65.99;101225.28;5012570;28;20061;-89
2023/06/15 11:34:33;;;;;;;9.52;8.32;;;;;;;24.31;65.78;101202.09;5008734;28;20041;-89
2023/06/15 11:37:02;;;;;;;9.93;8.93;;;;;;;24.55;65.77;101235.16;5014055;28;20105;-88
2023/06/15 11:39:29;;;;;;;9.35;8.25;;;;;;;24.47;65.33;101212.81;4978500;28;20390;-88
2023/06/15 11:42:00;;;;;;;9.77;8.82;;;;;;;24.66;65.95;101248.53;4995106;28;20524;-88
2023/06/15 11:44:27;;;;;;;9.07;8.18;;;;;;;24.31;64.60;101193.19;4977739;28;20038;-87
2023/06/15 11:46:58;;;;;;;9.02;8.13;;;;;;;24.62;65.08;101236.06;4978601;28;20521;-87
2023/06/15 11:49:24;;;;;;;9.32;8.43;;;;;;;24.67;65.31;101235.19;4978471;28;20026;-87
2023/06/15 11:51:52;;;;;;;8.90;8.00;;;;;;;24.75;65.43;101245.91;4986024;28;20500;-87
2023/06/15 11:54:23;;;;;;;9.95;8.80;;;;;;;24.74;65.65;101247.69;5011451;28;20030;-86
2023/06/15 11:56:49;;;;;;;10.02;8.60;;;;;;;24.78;65.63;101243.25;5012488;28;20022;-86
2023/06/15 11:59:15;;;;;;;;;;;;;;;24.70;65.50;101243.25;5012209;28;20034;-87